Terminal Aerodrome Forecast
Issued by NWS

Home | Current Version | Previous Version | Text Only | Print | Product List | Glossary On
Versions: 1 2 3 4 5 6 7 8 9 10 11 12
000
FTUS46 KLOX 201100 RRA
TAFVNY
TAF
KVNY 201148Z 2012/2112 VRB03KT P6SM SCT150
     FM202000 18007KT P6SM SCT150
     FM210300 VRB03KT P6SM SCT150=

USA.gov is the U.S. government's official web portal to all federal, state and local government web resources and services.